sensor_id;sensor_type;location;lat;lon;timestamp;pressure;altitude;pressure_sealevel;temperature;humidity
18201;BME280;9226;47.858;9.594;2022-08-21T00:01:13;95419.56;;;18.03;83.02
18201;BME280;9226;47.858;9.594;2022-08-21T00:03:40;95426.44;;;17.97;82.92
18201;BME280;9226;47.858;9.594;2022-08-21T00:06:06;95418.38;;;17.97;82.48
18201;BME280;9226;47.858;9.594;2022-08-21T00:08:31;95418.91;;;17.93;83.07
18201;BME280;9226;47.858;9.594;2022-08-21T00:10:57;95409.38;;;17.90;82.92
18201;BME280;9226;47.858;9.594;2022-08-21T00:13:22;95407.16;;;17.85;82.98
18201;BME280;9226;47.858;9.594;2022-08-21T00:15:49;95405.31;;;17.78;83.04
18201;BME280;9226;47.858;9.594;2022-08-21T00:18:15;95408.50;;;17.73;83.62
18201;BME280;9226;47.858;9.594;2022-08-21T00:20:42;95400.47;;;17.65;83.89
18201;BME280;9226;47.858;9.594;2022-08-21T00:23:08;95408.00;;;17.61;83.82
18201;BME280;9226;47.858;9.594;2022-08-21T00:25:34;95401.50;;;17.56;83.80
18201;BME280;9226;47.858;9.594;2022-08-21T00:27:59;95400.13;;;17.51;83.85
18201;BME280;9226;47.858;9.594;2022-08-21T00:30:27;95400.13;;;17.51;83.52
18201;BME280;9226;47.858;9.594;2022-08-21T00:32:54;95394.13;;;17.49;83.47
18201;BME280;9226;47.858;9.594;2022-08-21T00:35:25;95398.81;;;17.47;83.42
18201;BME280;9226;47.858;9.594;2022-08-21T00:37:51;95397.13;;;17.46;83.53
18201;BME280;9226;47.858;9.594;2022-08-21T00:40:20;95396.13;;;17.47;83.44
18201;BME280;9226;47.858;9.594;2022-08-21T00:42:47;95396.31;;;17.46;83.81
18201;BME280;9226;47.858;9.594;2022-08-21T00:45:13;95394.44;;;17.46;83.55
18201;BME280;9226;47.858;9.594;2022-08-21T00:47:38;95390.09;;;17.45;83.57
18201;BME280;9226;47.858;9.594;2022-08-21T00:50:06;95393.28;;;17.41;83.83
18201;BME280;9226;47.858;9.594;2022-08-21T00:52:33;95393.09;;;17.42;84.88
18201;BME280;9226;47.858;9.594;2022-08-21T00:55:00;95395.31;;;17.22;87.01
18201;BME280;9226;47.858;9.594;2022-08-21T00:57:39;95394.44;;;17.30;85.08
18201;BME280;9226;47.858;9.594;2022-08-21T01:00:13;95390.09;;;17.29;84.92
18201;BME280;9226;47.858;9.594;2022-08-21T01:02:40;95388.75;;;17.25;85.02
18201;BME280;9226;47.858;9.594;2022-08-21T01:05:07;95381.72;;;17.24;84.77
18201;BME280;9226;47.858;9.594;2022-08-21T01:07:33;95386.41;;;17.22;84.59
18201;BME280;9226;47.858;9.594;2022-08-21T01:09:58;95384.75;;;17.21;84.38
18201;BME280;9226;47.858;9.594;2022-08-21T01:12:25;95389.78;;;17.24;83.59
18201;BME280;9226;47.858;9.594;2022-08-21T01:14:51;95385.91;;;17.26;83.71
18201;BME280;9226;47.858;9.594;2022-08-21T01:17:17;95382.38;;;17.26;83.37
18201;BME280;9226;47.858;9.594;2022-08-21T01:19:44;95384.75;;;17.21;83.87
18201;BME280;9226;47.858;9.594;2022-08-21T01:22:10;95380.38;;;17.20;83.95
18201;BME280;9226;47.858;9.594;2022-08-21T01:24:36;95382.06;;;17.21;84.64
18201;BME280;9226;47.858;9.594;2022-08-21T01:27:02;95379.03;;;17.24;84.86
18201;BME280;9226;47.858;9.594;2022-08-21T01:29:51;95369.47;;;17.21;86.50
18201;BME280;9226;47.858;9.594;2022-08-21T01:32:20;95378.88;;;17.25;85.80
18201;BME280;9226;47.858;9.594;2022-08-21T01:34:48;95374.50;;;17.32;86.26
18201;BME280;9226;47.858;9.594;2022-08-21T01:37:14;95379.88;;;17.32;87.11
18201;BME280;9226;47.858;9.594;2022-08-21T01:39:40;95370.66;;;17.35;86.68
18201;BME280;9226;47.858;9.594;2022-08-21T01:42:06;95367.97;;;17.35;86.66
18201;BME280;9226;47.858;9.594;2022-08-21T01:44:32;95367.97;;;17.35;87.49
18201;BME280;9226;47.858;9.594;2022-08-21T01:47:00;95370.31;;;17.38;87.85
18201;BME280;9226;47.858;9.594;2022-08-21T01:49:26;95367.97;;;17.43;87.96
18201;BME280;9226;47.858;9.594;2022-08-21T01:51:52;95368.28;;;17.48;88.07
18201;BME280;9226;47.858;9.594;2022-08-21T01:54:18;95367.94;;;17.51;88.04
18201;BME280;9226;47.858;9.594;2022-08-21T01:56:46;95372.16;;;17.54;88.32
18201;BME280;9226;47.858;9.594;2022-08-21T01:59:13;95360.75;;;17.60;87.92
18201;BME280;9226;47.858;9.594;2022-08-21T02:01:39;95364.44;;;17.59;88.68
18201;BME280;9226;47.858;9.594;2022-08-21T02:04:06;95359.88;;;17.60;89.08
18201;BME280;9226;47.858;9.594;2022-08-21T02:06:32;95354.19;;;17.63;88.58
18201;BME280;9226;47.858;9.594;2022-08-21T02:08:57;95346.81;;;17.65;88.16
18201;BME280;9226;47.858;9.594;2022-08-21T02:11:23;95353.19;;;17.64;88.05
18201;BME280;9226;47.858;9.594;2022-08-21T02:13:49;95350.50;;;17.64;88.16
18201;BME280;9226;47.858;9.594;2022-08-21T02:16:14;95345.47;;;17.61;88.32
18201;BME280;9226;47.858;9.594;2022-08-21T02:18:40;95349.69;;;17.63;87.72
18201;BME280;9226;47.858;9.594;2022-08-21T02:21:06;95342.78;;;17.61;87.85
18201;BME280;9226;47.858;9.594;2022-08-21T02:23:32;95338.75;;;17.57;87.78
18201;BME280;9226;47.858;9.594;2022-08-21T02:26:02;95339.28;;;17.60;87.40
18201;BME280;9226;47.858;9.594;2022-08-21T02:28:28;95337.13;;;17.56;87.38
18201;BME280;9226;47.858;9.594;2022-08-21T02:30:55;95335.09;;;17.49;86.27
18201;BME280;9226;47.858;9.594;2022-08-21T02:33:21;95338.97;;;17.47;85.82
18201;BME280;9226;47.858;9.594;2022-08-21T02:35:48;95338.16;;;17.38;86.95
18201;BME280;9226;47.858;9.594;2022-08-21T02:38:17;95336.28;;;17.39;87.09
18201;BME280;9226;47.858;9.594;2022-08-21T02:40:44;95344.16;;;17.40;87.36
18201;BME280;9226;47.858;9.594;2022-08-21T02:43:10;95337.97;;;17.40;87.24
18201;BME280;9226;47.858;9.594;2022-08-21T02:45:37;95335.47;;;17.38;87.57
18201;BME280;9226;47.858;9.594;2022-08-21T02:48:10;95335.47;;;17.38;87.96
18201;BME280;9226;47.858;9.594;2022-08-21T02:50:42;95331.59;;;17.41;87.65
18201;BME280;9226;47.858;9.594;2022-08-21T02:53:10;95337.63;;;17.43;87.86
18201;BME280;9226;47.858;9.594;2022-08-21T02:55:37;95337.97;;;17.40;88.79
18201;BME280;9226;47.858;9.594;2022-08-21T02:58:04;95341.63;;;17.47;88.82
18201;BME280;9226;47.858;9.594;2022-08-21T03:00:31;95342.81;;;17.52;88.45
18201;BME280;9226;47.858;9.594;2022-08-21T03:02:58;95342.28;;;17.49;90.56
18201;BME280;9226;47.858;9.594;2022-08-21T03:05:25;95340.78;;;17.54;90.33
18201;BME280;9226;47.858;9.594;2022-08-21T03:07:51;95347.50;;;17.59;90.11
18201;BME280;9226;47.858;9.594;2022-08-21T03:10:18;95340.59;;;17.64;90.07
18201;BME280;9226;47.858;9.594;2022-08-21T03:12:45;95338.22;;;17.69;89.25
18201;BME280;9226;47.858;9.594;2022-08-21T03:15:13;95337.06;;;17.72;88.60
18201;BME280;9226;47.858;9.594;2022-08-21T03:17:39;95341.28;;;17.66;86.14
18201;BME280;9226;47.858;9.594;2022-08-21T03:20:06;95336.47;;;17.37;84.70
18201;BME280;9226;47.858;9.594;2022-08-21T03:22:32;95337.13;;;17.31;83.77
18201;BME280;9226;47.858;9.594;2022-08-21T03:24:58;95333.47;;;17.24;83.79
18201;BME280;9226;47.858;9.594;2022-08-21T03:27:25;95337.81;;;17.16;85.09
18201;BME280;9226;47.858;9.594;2022-08-21T03:29:52;95336.28;;;17.14;86.17
18201;BME280;9226;47.858;9.594;2022-08-21T03:32:18;95338.47;;;17.18;85.92
18201;BME280;9226;47.858;9.594;2022-08-21T03:34:45;95334.47;;;17.14;86.13
18201;BME280;9226;47.858;9.594;2022-08-21T03:37:10;95334.66;;;17.13;86.12
18201;BME280;9226;47.858;9.594;2022-08-21T03:39:36;95334.81;;;17.11;86.31
18201;BME280;9226;47.858;9.594;2022-08-21T03:42:01;95327.59;;;17.12;86.23
18201;BME280;9226;47.858;9.594;2022-08-21T03:44:27;95329.13;;;17.14;87.09
18201;BME280;9226;47.858;9.594;2022-08-21T03:46:57;95331.78;;;17.23;87.36
18201;BME280;9226;47.858;9.594;2022-08-21T03:49:23;95335.13;;;17.25;89.30
18201;BME280;9226;47.858;9.594;2022-08-21T03:51:48;95335.63;;;17.28;89.28
18201;BME280;9226;47.858;9.594;2022-08-21T03:54:14;95342.50;;;17.31;89.93
18201;BME280;9226;47.858;9.594;2022-08-21T03:56:39;95338.81;;;17.32;90.19
18201;BME280;9226;47.858;9.594;2022-08-21T03:59:05;95338.16;;;17.38;89.92
18201;BME280;9226;47.858;9.594;2022-08-21T04:01:31;95345.50;;;17.44;89.28
18201;BME280;9226;47.858;9.594;2022-08-21T04:03:57;95345.19;;;17.47;89.49
18201;BME280;9226;47.858;9.594;2022-08-21T04:06:23;95341.97;;;17.44;91.03
18201;BME280;9226;47.858;9.594;2022-08-21T04:08:49;95345.34;;;17.46;90.88
18201;BME280;9226;47.858;9.594;2022-08-21T04:11:15;95348.19;;;17.52;90.51
18201;BME280;9226;47.858;9.594;2022-08-21T04:13:41;95345.66;;;17.59;89.64
18201;BME280;9226;47.858;9.594;2022-08-21T04:16:07;95356.53;;;17.58;90.85
18201;BME280;9226;47.858;9.594;2022-08-21T04:18:33;95356.22;;;17.61;89.96
18201;BME280;9226;47.858;9.594;2022-08-21T04:20:59;95346.16;;;17.54;90.82
18201;BME280;9226;47.858;9.594;2022-08-21T04:23:26;95360.22;;;17.57;90.64
18201;BME280;9226;47.858;9.594;2022-08-21T04:25:53;95359.88;;;17.60;90.67
18201;BME280;9226;47.858;9.594;2022-08-21T04:28:20;95360.91;;;17.67;89.57
18201;BME280;9226;47.858;9.594;2022-08-21T04:30:45;95359.69;;;17.69;89.81
18201;BME280;9226;47.858;9.594;2022-08-21T04:33:11;95353.16;;;17.72;89.82
18201;BME280;9226;47.858;9.594;2022-08-21T04:35:37;95362.72;;;17.75;89.34
18201;BME280;9226;47.858;9.594;2022-08-21T04:38:02;95368.44;;;17.71;89.93
18201;BME280;9226;47.858;9.594;2022-08-21T04:40:28;95367.31;;;17.41;87.81
18201;BME280;9226;47.858;9.594;2022-08-21T04:43:04;95373.66;;;17.15;87.84
18201;BME280;9226;47.858;9.594;2022-08-21T04:45:33;95373.16;;;17.12;87.58
18201;BME280;9226;47.858;9.594;2022-08-21T04:48:01;95373.31;;;17.18;87.55
18201;BME280;9226;47.858;9.594;2022-08-21T04:50:39;95375.03;;;17.11;88.91
18201;BME280;9226;47.858;9.594;2022-08-21T04:53:09;95369.66;;;17.20;88.44
18201;BME280;9226;47.858;9.594;2022-08-21T04:55:36;95372.34;;;17.20;88.90
18201;BME280;9226;47.858;9.594;2022-08-21T04:58:05;95367.81;;;17.12;89.61
18201;BME280;9226;47.858;9.594;2022-08-21T05:00:31;95373.31;;;17.18;89.92
18201;BME280;9226;47.858;9.594;2022-08-21T05:02:57;95379.88;;;17.16;90.35
18201;BME280;9226;47.858;9.594;2022-08-21T05:05:25;95377.19;;;17.24;89.65
18201;BME280;9226;47.858;9.594;2022-08-21T05:07:53;95380.38;;;17.36;89.21
18201;BME280;9226;47.858;9.594;2022-08-21T05:10:18;95380.56;;;17.43;88.92
18201;BME280;9226;47.858;9.594;2022-08-21T05:12:44;95382.38;;;17.50;89.35
18201;BME280;9226;47.858;9.594;2022-08-21T05:15:11;95382.03;;;17.53;89.93
18201;BME280;9226;47.858;9.594;2022-08-21T05:17:37;95382.88;;;17.62;90.34
18201;BME280;9226;47.858;9.594;2022-08-21T05:20:03;95374.97;;;17.69;90.41
18201;BME280;9226;47.858;9.594;2022-08-21T05:22:28;95383.34;;;17.74;90.58
18201;BME280;9226;47.858;9.594;2022-08-21T05:24:54;95390.38;;;17.83;90.43
18201;BME280;9226;47.858;9.594;2022-08-21T05:27:19;95390.88;;;17.95;89.95
18201;BME280;9226;47.858;9.594;2022-08-21T05:29:45;95392.72;;;18.03;89.49
18201;BME280;9226;47.858;9.594;2022-08-21T05:32:12;95389.00;;;18.04;90.22
18201;BME280;9226;47.858;9.594;2022-08-21T05:34:38;95392.00;;;18.17;89.19
18201;BME280;9226;47.858;9.594;2022-08-21T05:37:04;95391.78;;;18.27;88.87
18201;BME280;9226;47.858;9.594;2022-08-21T05:39:29;95394.63;;;18.34;88.15
18201;BME280;9226;47.858;9.594;2022-08-21T05:41:55;95387.22;;;18.36;87.85
18201;BME280;9226;47.858;9.594;2022-08-21T05:44:20;95397.13;;;18.35;87.18
18201;BME280;9226;47.858;9.594;2022-08-21T05:46:46;95388.72;;;18.38;87.15
18201;BME280;9226;47.858;9.594;2022-08-21T05:49:11;95385.34;;;18.44;87.46
18201;BME280;9226;47.858;9.594;2022-08-21T05:51:38;95383.94;;;18.57;88.41
18201;BME280;9226;47.858;9.594;2022-08-21T05:54:04;95385.06;;;18.71;88.08
18201;BME280;9226;47.858;9.594;2022-08-21T05:56:29;95386.47;;;18.81;88.30
18201;BME280;9226;47.858;9.594;2022-08-21T05:58:54;95384.63;;;18.90;87.88
18201;BME280;9226;47.858;9.594;2022-08-21T06:01:20;95386.47;;;19.13;88.07
18201;BME280;9226;47.858;9.594;2022-08-21T06:03:46;95380.13;;;19.29;89.35
18201;BME280;9226;47.858;9.594;2022-08-21T06:06:11;95380.56;;;19.79;88.00
18201;BME280;9226;47.858;9.594;2022-08-21T06:08:37;95387.19;;;20.21;85.37
18201;BME280;9226;47.858;9.594;2022-08-21T06:11:03;95385.38;;;20.88;83.62
18201;BME280;9226;47.858;9.594;2022-08-21T06:13:30;95380.06;;;21.59;82.44
18201;BME280;9226;47.858;9.594;2022-08-21T06:16:09;95372.75;;;22.38;77.86
18201;BME280;9226;47.858;9.594;2022-08-21T06:18:35;95378.16;;;22.93;74.53
18201;BME280;9226;47.858;9.594;2022-08-21T06:21:01;95380.13;;;23.26;73.24
18201;BME280;9226;47.858;9.594;2022-08-21T06:23:27;95369.72;;;24.23;73.31
18201;BME280;9226;47.858;9.594;2022-08-21T06:25:52;95362.06;;;25.17;71.02
18201;BME280;9226;47.858;9.594;2022-08-21T06:28:18;95370.25;;;26.06;66.02
18201;BME280;9226;47.858;9.594;2022-08-21T06:30:43;95361.50;;;26.78;61.61
18201;BME280;9226;47.858;9.594;2022-08-21T06:33:09;95360.16;;;27.48;58.97
18201;BME280;9226;47.858;9.594;2022-08-21T06:35:35;95364.66;;;28.20;55.89
18201;BME280;9226;47.858;9.594;2022-08-21T06:38:01;95362.75;;;29.09;55.06
18201;BME280;9226;47.858;9.594;2022-08-21T06:40:27;95360.31;;;29.53;52.63
18201;BME280;9226;47.858;9.594;2022-08-21T06:42:53;95362.66;;;30.12;50.91
18201;BME280;9226;47.858;9.594;2022-08-21T06:45:18;95363.88;;;30.77;48.24
18201;BME280;9226;47.858;9.594;2022-08-21T06:47:44;95362.44;;;31.36;46.61
18201;BME280;9226;47.858;9.594;2022-08-21T06:50:09;95366.69;;;32.08;45.29
18201;BME280;9226;47.858;9.594;2022-08-21T06:52:38;95361.50;;;32.12;40.61
18201;BME280;9226;47.858;9.594;2022-08-21T06:55:09;95359.69;;;32.28;39.37
18201;BME280;9226;47.858;9.594;2022-08-21T06:57:35;95356.53;;;32.99;41.65
18201;BME280;9226;47.858;9.594;2022-08-21T07:00:02;95360.03;;;33.68;39.57
18201;BME280;9226;47.858;9.594;2022-08-21T07:02:28;95357.06;;;33.96;38.67
18201;BME280;9226;47.858;9.594;2022-08-21T07:04:53;95359.19;;;34.55;38.02
18201;BME280;9226;47.858;9.594;2022-08-21T07:07:19;95354.75;;;34.65;37.11
18201;BME280;9226;47.858;9.594;2022-08-21T07:09:44;95356.00;;;35.13;37.22
18201;BME280;9226;47.858;9.594;2022-08-21T07:12:09;95354.22;;;34.68;37.00
18201;BME280;9226;47.858;9.594;2022-08-21T07:14:35;95351.25;;;35.35;36.45
18201;BME280;9226;47.858;9.594;2022-08-21T07:17:01;95355.75;;;35.10;36.17
18201;BME280;9226;47.858;9.594;2022-08-21T07:19:27;95355.47;;;35.11;36.68
18201;BME280;9226;47.858;9.594;2022-08-21T07:21:56;95352.75;;;34.96;34.37
18201;BME280;9226;47.858;9.594;2022-08-21T07:24:22;95356.50;;;35.31;34.80
18201;BME280;9226;47.858;9.594;2022-08-21T07:26:48;95358.59;;;34.79;35.19
18201;BME280;9226;47.858;9.594;2022-08-21T07:29:13;95355.28;;;34.92;36.17
18201;BME280;9226;47.858;9.594;2022-08-21T07:31:39;95358.03;;;34.92;34.77
18201;BME280;9226;47.858;9.594;2022-08-21T07:34:05;95356.94;;;34.93;34.96
18201;BME280;9226;47.858;9.594;2022-08-21T07:36:30;95363.59;;;34.77;34.98
18201;BME280;9226;47.858;9.594;2022-08-21T07:38:56;95359.47;;;34.74;35.24
18201;BME280;9226;47.858;9.594;2022-08-21T07:41:25;95361.94;;;34.66;35.60
18201;BME280;9226;47.858;9.594;2022-08-21T07:43:51;95365.97;;;34.99;35.14
18201;BME280;9226;47.858;9.594;2022-08-21T07:46:16;95355.28;;;34.87;34.22
18201;BME280;9226;47.858;9.594;2022-08-21T07:48:42;95360.25;;;34.85;35.45
18201;BME280;9226;47.858;9.594;2022-08-21T07:51:12;95358.91;;;34.57;34.18
18201;BME280;9226;47.858;9.594;2022-08-21T07:53:38;95358.44;;;34.24;35.34
18201;BME280;9226;47.858;9.594;2022-08-21T07:56:06;95355.38;;;33.95;35.61
18201;BME280;9226;47.858;9.594;2022-08-21T07:58:33;95349.53;;;33.40;37.13
18201;BME280;9226;47.858;9.594;2022-08-21T08:00:59;95348.19;;;33.58;36.76
18201;BME280;9226;47.858;9.594;2022-08-21T08:03:25;95357.22;;;33.38;37.09
18201;BME280;9226;47.858;9.594;2022-08-21T08:05:50;95348.50;;;33.82;36.73
18201;BME280;9226;47.858;9.594;2022-08-21T08:08:16;95350.72;;;34.21;36.10
18201;BME280;9226;47.858;9.594;2022-08-21T08:10:42;95347.16;;;34.25;35.38
18201;BME280;9226;47.858;9.594;2022-08-21T08:13:08;95347.13;;;34.10;35.32
18201;BME280;9226;47.858;9.594;2022-08-21T08:15:35;95342.72;;;34.35;35.41
18201;BME280;9226;47.858;9.594;2022-08-21T08:18:01;95346.84;;;34.22;35.67
18201;BME280;9226;47.858;9.594;2022-08-21T08:20:28;95343.25;;;34.42;35.42
18201;BME280;9226;47.858;9.594;2022-08-21T08:22:54;95338.84;;;34.41;34.76
18201;BME280;9226;47.858;9.594;2022-08-21T08:25:25;95338.59;;;34.12;33.86
18201;BME280;9226;47.858;9.594;2022-08-21T08:27:51;95335.03;;;34.32;34.56
18201;BME280;9226;47.858;9.594;2022-08-21T08:30:17;95339.34;;;34.69;33.89
18201;BME280;9226;47.858;9.594;2022-08-21T08:32:44;95335.59;;;34.08;33.76
18201;BME280;9226;47.858;9.594;2022-08-21T08:35:10;95327.59;;;33.96;35.52
18201;BME280;9226;47.858;9.594;2022-08-21T08:37:37;95328.69;;;34.11;34.54
18201;BME280;9226;47.858;9.594;2022-08-21T08:40:18;95324.28;;;34.15;34.40
18201;BME280;9226;47.858;9.594;2022-08-21T08:42:46;95319.06;;;33.72;34.36
18201;BME280;9226;47.858;9.594;2022-08-21T08:45:16;95321.53;;;33.79;33.50
18201;BME280;9226;47.858;9.594;2022-08-21T08:47:55;95314.91;;;34.21;33.18
18201;BME280;9226;47.858;9.594;2022-08-21T08:50:49;95319.56;;;34.46;31.75
18201;BME280;9226;47.858;9.594;2022-08-21T08:53:19;95317.91;;;34.45;30.16
18201;BME280;9226;47.858;9.594;2022-08-21T08:55:48;95319.84;;;34.45;32.23
18201;BME280;9226;47.858;9.594;2022-08-21T08:58:23;95322.75;;;34.89;30.55
18201;BME280;9226;47.858;9.594;2022-08-21T09:00:51;95320.19;;;35.08;30.89
18201;BME280;9226;47.858;9.594;2022-08-21T09:03:17;95324.00;;;35.18;30.97
18201;BME280;9226;47.858;9.594;2022-08-21T09:06:18;95310.00;;;35.04;30.23
18201;BME280;9226;47.858;9.594;2022-08-21T09:11:45;95309.34;;;35.67;29.92
18201;BME280;9226;47.858;9.594;2022-08-21T09:14:25;95304.53;;;36.17;28.48
18201;BME280;9226;47.858;9.594;2022-08-21T09:17:09;95302.06;;;36.45;28.53
18201;BME280;9226;47.858;9.594;2022-08-21T09:20:08;95306.91;;;36.34;28.13
18201;BME280;9226;47.858;9.594;2022-08-21T09:25:55;95307.22;;;36.28;28.18
18201;BME280;9226;47.858;9.594;2022-08-21T09:28:23;95294.91;;;36.92;27.52
18201;BME280;9226;47.858;9.594;2022-08-21T09:30:50;95294.38;;;36.90;27.71
18201;BME280;9226;47.858;9.594;2022-08-21T09:33:19;95291.81;;;37.18;27.38
18201;BME280;9226;47.858;9.594;2022-08-21T09:35:55;95292.81;;;37.03;27.67
18201;BME280;9226;47.858;9.594;2022-08-21T09:38:30;95289.75;;;37.05;27.35
18201;BME280;9226;47.858;9.594;2022-08-21T09:41:03;95292.97;;;36.45;27.12
18201;BME280;9226;47.858;9.594;2022-08-21T09:43:30;95297.38;;;36.46;26.97
18201;BME280;9226;47.858;9.594;2022-08-21T09:46:20;95294.00;;;36.19;27.00
18201;BME280;9226;47.858;9.594;2022-08-21T09:48:49;95290.75;;;37.14;26.52
18201;BME280;9226;47.858;9.594;2022-08-21T09:51:30;95280.91;;;37.46;24.64
18201;BME280;9226;47.858;9.594;2022-08-21T09:56:38;95281.38;;;37.53;25.75
18201;BME280;9226;47.858;9.594;2022-08-21T09:59:33;95275.91;;;37.48;24.39
18201;BME280;9226;47.858;9.594;2022-08-21T10:02:01;95268.91;;;37.89;23.96
18201;BME280;9226;47.858;9.594;2022-08-21T10:04:31;95274.47;;;37.70;23.34
18201;BME280;9226;47.858;9.594;2022-08-21T10:07:12;95267.16;;;37.41;23.93
18201;BME280;9226;47.858;9.594;2022-08-21T10:09:40;95266.91;;;36.51;21.96
18201;BME280;9226;47.858;9.594;2022-08-21T10:12:19;95271.97;;;36.68;21.91
18201;BME280;9226;47.858;9.594;2022-08-21T10:15:07;95264.50;;;36.68;21.84
18201;BME280;9226;47.858;9.594;2022-08-21T10:20:21;95266.47;;;36.14;22.76
18201;BME280;9226;47.858;9.594;2022-08-21T10:25:42;95258.81;;;36.06;23.88
18201;BME280;9226;47.858;9.594;2022-08-21T10:28:21;95256.41;;;35.65;25.14
18201;BME280;9226;47.858;9.594;2022-08-21T10:30:56;95255.75;;;35.78;26.18
18201;BME280;9226;47.858;9.594;2022-08-21T10:33:33;95246.59;;;35.83;26.24
18201;BME280;9226;47.858;9.594;2022-08-21T10:36:09;95244.72;;;35.73;25.29
18201;BME280;9226;47.858;9.594;2022-08-21T10:47:01;95234.19;;;35.06;26.35
18201;BME280;9226;47.858;9.594;2022-08-21T10:55:18;95229.31;;;34.88;27.18
18201;BME280;9226;47.858;9.594;2022-08-21T11:00:21;95225.78;;;33.91;27.94
18201;BME280;9226;47.858;9.594;2022-08-21T11:05:33;95224.94;;;33.24;28.29
18201;BME280;9226;47.858;9.594;2022-08-21T11:08:10;95219.88;;;32.74;29.17
18201;BME280;9226;47.858;9.594;2022-08-21T11:10:50;95220.31;;;32.40;28.35
18201;BME280;9226;47.858;9.594;2022-08-21T11:13:24;95222.19;;;32.35;30.00
18201;BME280;9226;47.858;9.594;2022-08-21T11:18:57;95212.38;;;31.53;31.76
18201;BME280;9226;47.858;9.594;2022-08-21T11:21:43;95220.41;;;31.33;31.38
18201;BME280;9226;47.858;9.594;2022-08-21T11:24:29;95208.75;;;31.15;30.79
18201;BME280;9226;47.858;9.594;2022-08-21T11:29:38;95215.72;;;31.01;31.71
18201;BME280;9226;47.858;9.594;2022-08-21T11:40:35;95197.91;;;30.05;31.83
18201;BME280;9226;47.858;9.594;2022-08-21T11:43:09;95204.38;;;30.21;32.64
18201;BME280;9226;47.858;9.594;2022-08-21T11:45:50;95203.94;;;30.29;32.68
18201;BME280;9226;47.858;9.594;2022-08-21T11:50:43;95190.94;;;29.97;31.88
18201;BME280;9226;47.858;9.594;2022-08-21T11:58:36;95171.91;;;29.29;32.36
18201;BME280;9226;47.858;9.594;2022-08-21T12:01:09;95177.44;;;29.34;31.49
18201;BME280;9226;47.858;9.594;2022-08-21T12:03:40;95169.31;;;29.39;32.64
18201;BME280;9226;47.858;9.594;2022-08-21T12:06:10;95173.63;;;29.35;33.02
18201;BME280;9226;47.858;9.594;2022-08-21T12:08:39;95169.25;;;29.34;32.92
18201;BME280;9226;47.858;9.594;2022-08-21T12:13:54;95159.91;;;29.86;33.50
18201;BME280;9226;47.858;9.594;2022-08-21T12:16:47;95158.59;;;28.87;32.18
18201;BME280;9226;47.858;9.594;2022-08-21T12:21:52;95156.38;;;29.52;32.64
18201;BME280;9226;47.858;9.594;2022-08-21T12:24:40;95151.69;;;29.30;33.07
18201;BME280;9226;47.858;9.594;2022-08-21T12:30:01;95147.50;;;29.22;34.15
18201;BME280;9226;47.858;9.594;2022-08-21T12:32:28;95150.25;;;28.77;34.61
18201;BME280;9226;47.858;9.594;2022-08-21T12:35:01;95148.63;;;28.93;34.05
18201;BME280;9226;47.858;9.594;2022-08-21T12:39:53;95141.47;;;28.46;34.28
18201;BME280;9226;47.858;9.594;2022-08-21T12:42:24;95146.44;;;28.78;35.17
18201;BME280;9226;47.858;9.594;2022-08-21T12:44:56;95146.19;;;28.79;34.58
18201;BME280;9226;47.858;9.594;2022-08-21T12:47:31;95145.28;;;28.16;34.33
18201;BME280;9226;47.858;9.594;2022-08-21T12:50:20;95140.94;;;27.91;33.71
18201;BME280;9226;47.858;9.594;2022-08-21T12:53:00;95141.06;;;27.96;34.48
18201;BME280;9226;47.858;9.594;2022-08-21T12:55:30;95134.47;;;28.21;35.15
18201;BME280;9226;47.858;9.594;2022-08-21T12:57:56;95129.75;;;28.17;34.17
18201;BME280;9226;47.858;9.594;2022-08-21T13:00:24;95130.28;;;27.90;34.26
18201;BME280;9226;47.858;9.594;2022-08-21T13:02:51;95130.78;;;27.75;32.81
18201;BME280;9226;47.858;9.594;2022-08-21T13:05:34;95126.66;;;28.13;32.91
18201;BME280;9226;47.858;9.594;2022-08-21T13:08:06;95130.09;;;28.20;33.53
18201;BME280;9226;47.858;9.594;2022-08-21T13:10:34;95130.34;;;28.07;33.40
18201;BME280;9226;47.858;9.594;2022-08-21T13:13:03;95122.19;;;28.07;32.76
18201;BME280;9226;47.858;9.594;2022-08-21T13:15:32;95122.78;;;28.38;31.99
18201;BME280;9226;47.858;9.594;2022-08-21T13:17:58;95127.16;;;28.39;32.69
18201;BME280;9226;47.858;9.594;2022-08-21T13:20:38;95118.91;;;28.50;31.59
18201;BME280;9226;47.858;9.594;2022-08-21T13:25:52;95127.66;;;28.52;32.32
18201;BME280;9226;47.858;9.594;2022-08-21T13:28:17;95122.75;;;28.66;32.81
18201;BME280;9226;47.858;9.594;2022-08-21T13:33:12;95119.81;;;29.02;31.19
18201;BME280;9226;47.858;9.594;2022-08-21T13:38:25;95117.97;;;29.08;30.40
18201;BME280;9226;47.858;9.594;2022-08-21T13:40:55;95117.47;;;29.11;30.91
18201;BME280;9226;47.858;9.594;2022-08-21T13:43:27;95118.75;;;29.20;30.88
18201;BME280;9226;47.858;9.594;2022-08-21T13:45:55;95118.25;;;29.23;31.98
18201;BME280;9226;47.858;9.594;2022-08-21T13:48:23;95112.50;;;28.91;31.32
18201;BME280;9226;47.858;9.594;2022-08-21T13:50:50;95114.59;;;29.00;31.97
18201;BME280;9226;47.858;9.594;2022-08-21T13:55:50;95109.72;;;28.85;32.64
18201;BME280;9226;47.858;9.594;2022-08-21T13:58:25;95111.44;;;29.09;32.80
18201;BME280;9226;47.858;9.594;2022-08-21T14:00:52;95105.03;;;28.52;32.52
18201;BME280;9226;47.858;9.594;2022-08-21T14:05:52;95106.66;;;28.36;32.67
18201;BME280;9226;47.858;9.594;2022-08-21T14:09:30;95103.78;;;28.14;33.03
18201;BME280;9226;47.858;9.594;2022-08-21T14:11:36;95112.53;;;28.16;33.01
18201;BME280;9226;47.858;9.594;2022-08-21T14:14:19;95102.63;;;28.39;33.51
18201;BME280;9226;47.858;9.594;2022-08-21T14:16:54;95098.22;;;28.38;33.96
18201;BME280;9226;47.858;9.594;2022-08-21T14:19:22;95110.81;;;28.56;33.94
18201;BME280;9226;47.858;9.594;2022-08-21T14:21:47;95105.91;;;28.69;33.43
18201;BME280;9226;47.858;9.594;2022-08-21T14:27:06;95103.84;;;28.77;33.70
18201;BME280;9226;47.858;9.594;2022-08-21T14:29:38;95110.03;;;28.89;32.96
18201;BME280;9226;47.858;9.594;2022-08-21T14:32:15;95108.81;;;28.51;32.25
18201;BME280;9226;47.858;9.594;2022-08-21T14:34:41;95108.78;;;28.05;32.06
18201;BME280;9226;47.858;9.594;2022-08-21T14:37:07;95104.63;;;27.62;32.77
18201;BME280;9226;47.858;9.594;2022-08-21T14:39:32;95100.19;;;27.96;33.40
18201;BME280;9226;47.858;9.594;2022-08-21T14:41:58;95107.63;;;28.01;32.20